High gust

Not for real navigation. The accuracy of this data is not assured See disclaimer for more information



ICAO NAME COUNTRY WIND Kt GUST Kt VIS m TEMP/DEW C BARO METAR
YMAV Avalon, Avalon Airport Australia 31 41 3100 11/9 29.77 YMAV 271327Z AUTO 27031G41KT 3100 SHRA BKN030 BKN065 BKN091 11/09 Q1008
VABP Bhopal / Bairagarh India 30 40 9999 40/11 29.56 VABP 271300Z 28030G40KT DU SCT025 FEW030 CB SCT100 40/11 Q1001 NOSIG
ENQR 26 40 9999 11/10 29.91 ENQR 271320Z AUTO 17026G40KT 9999NDV NCD 11/10 Q1013 W///S4
KSTJ ROSECRANS MEMORIAL AIRPORT MO United States 17 37 16000 19/15 29.97 KSTJ 271320Z 27017G37KT 10SM VCTS FEW026 SCT044 OVC055 19/15 A2997 RMK AO2 PK WND 26037/1312 LTG NOO
LPPD Ponta Delgada / Nordela Acores Portugal 25 36 9999 17/14 29.77 LPPD 271300Z 29025G36KT 9999 VCSH SCT013 BKN016 17/14 Q1008

Show more